Time;durP1;ratioP1;P1;durP2;ratioP2;P2;SDS_P1;SDS_P2;PMS_P1;PMS_P2;Temp;Humidity;BMP_temperature;BMP_pressure;BME280_temperature;BME280_humidity;BME280_pressure;Samples;Min_cycle;Max_cycle;Signal;HPM_P1;HPM_P2
2022/08/01 00:01:28;;;;;;;3.30;2.88;;;;;;;;;;4987667;28;20061;-48
2022/08/01 00:03:54;;;;;;;9.38;3.40;;;;;;;;;;4987513;28;20050;-51
2022/08/01 00:06:19;;;;;;;3.58;3.28;;;;;;;;;;4987094;28;20505;-46
2022/08/01 00:08:44;;;;;;;5.45;3.65;;;;;;;;;;4987459;28;20134;-50
2022/08/01 00:11:10;;;;;;;3.83;3.08;;;;;;;;;;4986768;28;20054;-43
2022/08/01 00:13:35;;;;;;;10.52;3.53;;;;;;;;;;4985141;28;20510;-48
2022/08/01 00:16:00;;;;;;;4.53;3.30;;;;;;;;;;4987357;28;20077;-45
2022/08/01 00:18:26;;;;;;;6.25;4.22;;;;;;;;;;4986114;28;20043;-47
2022/08/01 00:20:51;;;;;;;4.50;3.20;;;;;;;;;;4986290;28;20494;-47
2022/08/01 00:23:17;;;;;;;10.48;4.18;;;;;;;;;;4986333;28;20509;-47
2022/08/01 00:25:42;;;;;;;5.25;3.70;;;;;;;;;;4986699;28;20039;-45
2022/08/01 00:28:08;;;;;;;4.72;3.25;;;;;;;;;;4986975;28;20057;-48
2022/08/01 00:30:34;;;;;;;4.30;3.90;;;;;;;;;;4986294;28;20128;-52
2022/08/01 00:32:59;;;;;;;5.63;4.07;;;;;;;;;;4986718;28;20121;-46
2022/08/01 00:35:25;;;;;;;5.53;3.38;;;;;;;;;;4985519;28;20054;-48
2022/08/01 00:37:51;;;;;;;4.07;2.92;;;;;;;;;;4986445;28;20054;-47
2022/08/01 00:40:16;;;;;;;10.68;4.05;;;;;;;;;;4985531;28;20042;-50
2022/08/01 00:42:42;;;;;;;3.80;3.05;;;;;;;;;;4986282;28;20142;-50
2022/08/01 00:45:07;;;;;;;9.63;4.25;;;;;;;;;;4986451;28;20038;-49
2022/08/01 00:47:33;;;;;;;6.70;5.07;;;;;;;;;;4985025;28;20035;-50
2022/08/01 00:49:58;;;;;;;5.57;4.80;;;;;;;;;;4985813;28;20104;-48
2022/08/01 00:52:23;;;;;;;4.28;3.33;;;;;;;;;;4985998;28;20050;-48
2022/08/01 00:54:49;;;;;;;4.70;4.28;;;;;;;;;;4986495;28;20056;-48
2022/08/01 00:57:14;;;;;;;9.60;4.50;;;;;;;;;;4984751;28;20070;-46
2022/08/01 00:59:40;;;;;;;4.93;3.63;;;;;;;;;;4985615;28;20334;-47
2022/08/01 01:02:05;;;;;;;4.43;3.75;;;;;;;;;;4985796;28;20054;-48
2022/08/01 01:04:31;;;;;;;4.25;3.55;;;;;;;;;;4986207;28;20046;-46
2022/08/01 01:07:07;;;;;;;5.85;4.65;;;;;;;;;;4986448;28;20044;-48
2022/08/01 01:09:42;;;;;;;4.95;4.00;;;;;;;;;;4985456;28;20181;-45
2022/08/01 01:12:07;;;;;;;5.85;3.83;;;;;;;;;;4986183;28;20057;-49
2022/08/01 01:14:45;;;;;;;4.88;4.10;;;;;;;;;;4986066;28;20050;-47
2022/08/01 01:17:11;;;;;;;4.93;4.28;;;;;;;;;;4984959;28;20616;-44
2022/08/01 01:19:39;;;;;;;7.95;3.72;;;;;;;;;;4968676;28;20129;-48
2022/08/01 01:22:22;;;;;;;3.85;3.42;;;;;;;;;;4984117;28;20055;-43
2022/08/01 01:24:51;;;;;;;7.88;5.25;;;;;;;;;;4985994;28;20073;-45
2022/08/01 01:27:35;;;;;;;4.93;4.40;;;;;;;;;;4986205;28;20046;-46
2022/08/01 01:30:01;;;;;;;4.55;4.15;;;;;;;;;;4986089;28;20058;-50
2022/08/01 01:32:33;;;;;;;6.05;3.90;;;;;;;;;;4986305;28;20038;-47
2022/08/01 01:34:59;;;;;;;4.03;2.90;;;;;;;;;;4985504;28;20122;-50
2022/08/01 01:37:25;;;;;;;3.97;3.38;;;;;;;;;;4985553;28;20058;-48
2022/08/01 01:39:52;;;;;;;3.67;3.38;;;;;;;;;;4985763;28;20120;-46
2022/08/01 01:42:18;;;;;;;4.82;4.05;;;;;;;;;;4985733;28;20046;-49
2022/08/01 01:44:48;;;;;;;13.40;4.75;;;;;;;;;;4985652;28;20464;-49
2022/08/01 01:47:16;;;;;;;4.50;4.00;;;;;;;;;;4984435;28;20042;-48
2022/08/01 01:49:43;;;;;;;5.15;4.30;;;;;;;;;;4985501;28;20046;-50
2022/08/01 01:52:09;;;;;;;4.20;3.63;;;;;;;;;;4985235;28;20054;-48
2022/08/01 01:54:39;;;;;;;8.63;3.55;;;;;;;;;;4984592;28;20096;-46
2022/08/01 01:57:06;;;;;;;7.60;4.15;;;;;;;;;;4985186;28;20130;-46
2022/08/01 01:59:33;;;;;;;6.22;3.97;;;;;;;;;;4984543;28;20096;-48
2022/08/01 02:01:59;;;;;;;5.03;3.65;;;;;;;;;;4985056;28;20057;-44
2022/08/01 02:04:26;;;;;;;4.28;3.88;;;;;;;;;;4985587;28;20069;-46
2022/08/01 02:06:52;;;;;;;6.63;3.15;;;;;;;;;;4984728;28;20065;-50
2022/08/01 02:09:19;;;;;;;5.18;4.22;;;;;;;;;;4988978;28;20042;-47
2022/08/01 02:11:45;;;;;;;4.32;3.20;;;;;;;;;;4988773;28;20050;-46
2022/08/01 02:14:11;;;;;;;4.97;4.53;;;;;;;;;;4988399;28;20103;-47
2022/08/01 02:16:39;;;;;;;3.67;3.30;;;;;;;;;;4988749;28;20510;-48
2022/08/01 02:19:04;;;;;;;5.53;4.88;;;;;;;;;;4988833;28;20808;-50
2022/08/01 02:21:32;;;;;;;6.32;4.32;;;;;;;;;;4988658;28;20077;-46
2022/08/01 02:24:02;;;;;;;4.43;4.03;;;;;;;;;;4987346;28;20116;-47
2022/08/01 02:26:28;;;;;;;7.80;3.83;;;;;;;;;;4988238;28;20052;-45
2022/08/01 02:28:57;;;;;;;5.07;4.57;;;;;;;;;;4988711;28;20385;-52
2022/08/01 02:31:22;;;;;;;8.63;4.18;;;;;;;;;;4989026;28;20034;-50
2022/08/01 02:34:09;;;;;;;7.88;4.28;;;;;;;;;;4988417;28;20057;-48
2022/08/01 02:36:35;;;;;;;6.43;3.97;;;;;;;;;;4987105;28;20042;-49
2022/08/01 02:39:03;;;;;;;4.35;3.95;;;;;;;;;;4988502;28;20100;-47
2022/08/01 02:41:29;;;;;;;9.20;4.53;;;;;;;;;;4988135;28;20053;-44
2022/08/01 02:43:58;;;;;;;4.88;4.18;;;;;;;;;;4987844;28;20820;-46
2022/08/01 02:46:26;;;;;;;4.90;4.40;;;;;;;;;;4988361;28;20050;-48
2022/08/01 02:48:53;;;;;;;5.72;5.00;;;;;;;;;;4987727;28;20042;-46
2022/08/01 02:51:21;;;;;;;6.18;5.20;;;;;;;;;;4988157;28;20080;-48
2022/08/01 02:53:47;;;;;;;6.97;4.25;;;;;;;;;;4987793;28;20598;-49
2022/08/01 02:56:13;;;;;;;4.97;4.35;;;;;;;;;;4987803;28;20506;-47
2022/08/01 02:58:39;;;;;;;5.95;4.63;;;;;;;;;;4987758;28;20149;-49
2022/08/01 03:01:05;;;;;;;4.53;4.05;;;;;;;;;;4987020;28;20477;-47
2022/08/01 03:03:31;;;;;;;5.65;4.35;;;;;;;;;;4987286;28;20052;-44
2022/08/01 03:05:58;;;;;;;4.38;3.70;;;;;;;;;;4988122;28;20141;-49
2022/08/01 03:08:23;;;;;;;4.47;4.07;;;;;;;;;;4987368;28;20070;-46
2022/08/01 03:10:50;;;;;;;5.00;4.30;;;;;;;;;;4988116;28;20140;-50
2022/08/01 03:13:15;;;;;;;4.45;3.30;;;;;;;;;;4987103;28;20055;-49
2022/08/01 03:15:41;;;;;;;6.95;4.75;;;;;;;;;;4987782;28;20047;-46
2022/08/01 03:18:08;;;;;;;4.82;4.25;;;;;;;;;;4985071;28;20046;-47
2022/08/01 03:20:34;;;;;;;4.68;4.15;;;;;;;;;;4987222;28;20042;-49
2022/08/01 03:23:01;;;;;;;4.63;4.13;;;;;;;;;;4987843;28;20057;-44
2022/08/01 03:25:28;;;;;;;5.25;4.43;;;;;;;;;;4987125;28;20050;-47
2022/08/01 03:27:55;;;;;;;5.10;4.60;;;;;;;;;;4980264;28;20045;-48
2022/08/01 03:30:25;;;;;;;4.60;4.18;;;;;;;;;;4986850;28;20521;-48
2022/08/01 03:32:50;;;;;;;6.78;4.68;;;;;;;;;;4986750;28;20205;-49
2022/08/01 03:35:16;;;;;;;4.47;3.78;;;;;;;;;;4986872;28;20509;-46
2022/08/01 03:37:44;;;;;;;7.28;4.28;;;;;;;;;;4986988;28;20046;-49
2022/08/01 03:40:12;;;;;;;4.18;3.67;;;;;;;;;;4986864;28;20149;-48
2022/08/01 03:42:41;;;;;;;4.38;3.78;;;;;;;;;;4987048;28;20057;-48
2022/08/01 03:45:12;;;;;;;4.82;3.60;;;;;;;;;;4987500;28;20515;-45
2022/08/01 03:47:37;;;;;;;;;;;;;;;;;;4987923;28;20038;-47
2022/08/01 03:50:04;;;;;;;3.55;3.20;;;;;;;;;;4987074;28;20184;-50
2022/08/01 03:52:30;;;;;;;5.45;4.53;;;;;;;;;;4986682;28;20158;-46
2022/08/01 03:54:57;;;;;;;4.10;3.70;;;;;;;;;;4986653;28;20042;-48
2022/08/01 03:57:23;;;;;;;10.32;4.75;;;;;;;;;;4985669;28;20108;-45
2022/08/01 03:59:49;;;;;;;6.03;3.97;;;;;;;;;;4985771;28;20079;-47
2022/08/01 04:02:16;;;;;;;6.40;4.45;;;;;;;;;;4986552;28;20505;-48
2022/08/01 04:04:42;;;;;;;10.15;4.82;;;;;;;;;;4986290;28;20532;-49
2022/08/01 04:07:30;;;;;;;7.88;4.30;;;;;;;;;;4985098;28;20100;-49
2022/08/01 04:09:55;;;;;;;4.72;4.15;;;;;;;;;;4978924;28;20037;-51
2022/08/01 04:12:21;;;;;;;5.13;4.65;;;;;;;;;;4986982;28;20042;-48
2022/08/01 04:14:46;;;;;;;3.65;3.25;;;;;;;;;;4985652;28;20041;-50
2022/08/01 04:17:12;;;;;;;4.90;4.30;;;;;;;;;;4986123;28;20596;-48
2022/08/01 04:19:37;;;;;;;5.63;5.07;;;;;;;;;;4978122;28;20038;-48
2022/08/01 04:22:04;;;;;;;7.05;4.43;;;;;;;;;;4986529;28;20050;-50
2022/08/01 04:24:31;;;;;;;5.35;4.07;;;;;;;;;;4985032;28;20057;-53
2022/08/01 04:26:58;;;;;;;4.70;4.30;;;;;;;;;;4986543;28;20122;-52
2022/08/01 04:29:24;;;;;;;7.07;4.65;;;;;;;;;;4964018;28;20034;-50
2022/08/01 04:31:50;;;;;;;4.95;4.45;;;;;;;;;;4986283;28;20137;-45
2022/08/01 04:34:17;;;;;;;4.97;3.60;;;;;;;;;;4986476;28;20084;-47
2022/08/01 04:36:44;;;;;;;7.50;5.13;;;;;;;;;;4986345;28;20631;-45
2022/08/01 04:39:09;;;;;;;6.30;4.95;;;;;;;;;;4985528;28;20141;-46
2022/08/01 04:41:36;;;;;;;4.80;4.18;;;;;;;;;;4986596;28;20581;-47
2022/08/01 04:44:02;;;;;;;7.47;4.43;;;;;;;;;;4985847;28;20054;-48
2022/08/01 04:46:29;;;;;;;5.40;4.05;;;;;;;;;;4985838;28;20417;-51
2022/08/01 04:48:54;;;;;;;8.23;4.68;;;;;;;;;;4985977;28;20042;-48
2022/08/01 04:51:21;;;;;;;4.70;3.67;;;;;;;;;;4985863;28;20049;-46
2022/08/01 04:53:47;;;;;;;17.20;5.03;;;;;;;;;;4986426;28;20088;-44
2022/08/01 04:56:13;;;;;;;13.88;3.63;;;;;;;;;;4985694;28;20491;-49
2022/08/01 04:58:39;;;;;;;5.15;3.97;;;;;;;;;;4984556;28;20050;-50
2022/08/01 05:01:05;;;;;;;8.63;3.95;;;;;;;;;;4985244;28;20049;-47
2022/08/01 05:03:30;;;;;;;6.78;4.47;;;;;;;;;;4968031;28;20042;-46
2022/08/01 05:05:55;;;;;;;10.55;5.50;;;;;;;;;;4984904;28;20224;-48
2022/08/01 05:08:21;;;;;;;8.75;5.80;;;;;;;;;;4986195;28;20054;-49
2022/08/01 05:10:46;;;;;;;4.50;3.92;;;;;;;;;;4981311;28;20046;-49
2022/08/01 05:13:11;;;;;;;4.45;4.03;;;;;;;;;;4980470;28;20102;-48
2022/08/01 05:15:37;;;;;;;9.43;5.25;;;;;;;;;;4967567;28;20464;-50
2022/08/01 05:18:03;;;;;;;7.65;5.88;;;;;;;;;;4985749;28;20550;-49
2022/08/01 05:20:28;;;;;;;17.23;15.73;;;;;;;;;;4985044;28;20046;-45
2022/08/01 05:22:53;;;;;;;10.00;7.80;;;;;;;;;;4985200;28;20048;-50
2022/08/01 05:25:19;;;;;;;6.22;5.63;;;;;;;;;;4985825;28;20042;-52
2022/08/01 05:27:44;;;;;;;14.32;7.22;;;;;;;;;;4965752;28;20122;-44
2022/08/01 05:30:09;;;;;;;10.10;5.63;;;;;;;;;;4985065;28;20042;-50
2022/08/01 05:32:35;;;;;;;16.90;8.90;;;;;;;;;;4983784;28;20055;-49
2022/08/01 05:35:00;;;;;;;4.85;4.35;;;;;;;;;;4984485;28;20081;-45
2022/08/01 05:37:26;;;;;;;6.30;5.07;;;;;;;;;;4984053;28;20138;-45
2022/08/01 05:39:51;;;;;;;5.45;4.88;;;;;;;;;;4985231;28;20505;-46
2022/08/01 05:42:17;;;;;;;7.28;5.65;;;;;;;;;;4985656;28;20046;-46
2022/08/01 05:44:42;;;;;;;10.93;5.57;;;;;;;;;;4989377;28;20042;-47
2022/08/01 05:47:07;;;;;;;20.20;5.63;;;;;;;;;;4989524;28;20042;-51
2022/08/01 05:49:33;;;;;;;6.93;5.18;;;;;;;;;;4988541;28;20708;-50
2022/08/01 05:51:58;;;;;;;7.22;5.90;;;;;;;;;;4987743;28;20058;-51
2022/08/01 05:54:24;;;;;;;6.13;5.13;;;;;;;;;;4988681;28;20050;-48
2022/08/01 05:56:49;;;;;;;5.40;4.43;;;;;;;;;;4985439;28;20030;-46
2022/08/01 05:59:15;;;;;;;7.07;5.47;;;;;;;;;;4986325;28;20128;-49
2022/08/01 06:01:40;;;;;;;6.28;4.82;;;;;;;;;;4977811;28;20046;-50
2022/08/01 06:04:06;;;;;;;6.65;5.30;;;;;;;;;;4987588;28;20054;-46
2022/08/01 06:06:31;;;;;;;8.10;5.10;;;;;;;;;;4987466;28;20046;-48
2022/08/01 06:08:57;;;;;;;6.00;5.40;;;;;;;;;;4986593;28;20062;-47
2022/08/01 06:11:22;;;;;;;7.07;4.60;;;;;;;;;;4987357;28;20089;-47
2022/08/01 06:13:47;;;;;;;4.70;4.25;;;;;;;;;;4988015;28;20073;-46
2022/08/01 06:16:13;;;;;;;5.25;4.85;;;;;;;;;;4985602;28;20080;-49
2022/08/01 06:18:38;;;;;;;5.03;4.53;;;;;;;;;;4987362;28;20046;-50
2022/08/01 06:21:03;;;;;;;6.65;3.08;;;;;;;;;;4987591;28;20049;-47
2022/08/01 06:23:29;;;;;;;4.85;4.38;;;;;;;;;;4987751;28;20561;-49
2022/08/01 06:25:54;;;;;;;5.53;4.03;;;;;;;;;;4986758;28;20124;-52
2022/08/01 06:28:20;;;;;;;5.50;3.80;;;;;;;;;;4987160;28;20050;-48
2022/08/01 06:30:46;;;;;;;4.35;3.72;;;;;;;;;;4987626;28;20038;-53
2022/08/01 06:33:11;;;;;;;7.43;3.85;;;;;;;;;;4987305;28;20042;-50
2022/08/01 06:35:36;;;;;;;7.40;3.55;;;;;;;;;;4987332;28;20121;-53
2022/08/01 06:38:02;;;;;;;5.25;3.63;;;;;;;;;;4987110;28;20030;-47
2022/08/01 06:40:27;;;;;;;5.45;3.22;;;;;;;;;;4984420;28;20042;-46
2022/08/01 06:42:53;;;;;;;14.75;4.75;;;;;;;;;;4987441;28;20054;-46
2022/08/01 06:45:18;;;;;;;8.75;4.57;;;;;;;;;;4986755;28;20054;-48
2022/08/01 06:47:44;;;;;;;6.47;5.88;;;;;;;;;;4987462;28;20045;-47
2022/08/01 06:50:09;;;;;;;5.15;3.40;;;;;;;;;;4987013;28;20134;-45
2022/08/01 06:52:35;;;;;;;10.57;5.13;;;;;;;;;;4986891;28;20077;-54
2022/08/01 06:55:01;;;;;;;17.85;9.10;;;;;;;;;;4986909;28;20070;-47
2022/08/01 06:57:26;;;;;;;7.97;6.50;;;;;;;;;;4984812;28;20125;-49
2022/08/01 06:59:52;;;;;;;6.78;6.07;;;;;;;;;;4986019;28;20050;-50
2022/08/01 07:02:17;;;;;;;4.30;3.90;;;;;;;;;;4985817;28;20470;-51
2022/08/01 07:04:43;;;;;;;5.82;4.72;;;;;;;;;;4986336;28;20042;-53
2022/08/01 07:07:08;;;;;;;10.57;5.90;;;;;;;;;;4986887;28;20038;-51
2022/08/01 07:09:34;;;;;;;9.13;5.20;;;;;;;;;;4987264;28;20042;-48
2022/08/01 07:11:59;;;;;;;10.27;6.07;;;;;;;;;;4984651;28;20065;-47
2022/08/01 07:14:24;;;;;;;3.80;3.33;;;;;;;;;;4985465;28;20034;-46
2022/08/01 07:16:50;;;;;;;8.93;4.30;;;;;;;;;;4986697;28;20150;-47
2022/08/01 07:19:16;;;;;;;4.38;4.00;;;;;;;;;;4984063;28;20387;-46
2022/08/01 07:21:41;;;;;;;4.97;4.07;;;;;;;;;;4985053;28;20249;-45
2022/08/01 07:24:07;;;;;;;5.93;2.33;;;;;;;;;;4986887;28;20066;-48
2022/08/01 07:26:33;;;;;;;5.60;3.35;;;;;;;;;;4986572;28;20715;-46
2022/08/01 07:28:58;;;;;;;5.13;4.28;;;;;;;;;;4984881;28;20100;-45
2022/08/01 07:31:23;;;;;;;12.55;4.43;;;;;;;;;;4985986;28;20049;-48
2022/08/01 07:33:49;;;;;;;5.88;3.58;;;;;;;;;;4986360;28;20042;-50
2022/08/01 07:36:15;;;;;;;3.60;3.25;;;;;;;;;;4986564;28;20054;-52
2022/08/01 07:38:40;;;;;;;3.60;2.90;;;;;;;;;;4985396;28;20050;-53
2022/08/01 07:41:06;;;;;;;2.90;2.45;;;;;;;;;;4985323;28;20049;-47
2022/08/01 07:43:31;;;;;;;4.50;3.05;;;;;;;;;;4985951;28;20046;-50
2022/08/01 07:45:56;;;;;;;5.32;2.83;;;;;;;;;;4986171;28;20310;-46
2022/08/01 07:48:23;;;;;;;8.15;3.90;;;;;;;;;;4986102;28;20054;-47
2022/08/01 07:50:49;;;;;;;6.45;2.60;;;;;;;;;;4985962;28;20045;-48
2022/08/01 07:53:14;;;;;;;3.63;2.60;;;;;;;;;;4985129;28;20042;-46
2022/08/01 07:55:40;;;;;;;6.53;4.82;;;;;;;;;;4985947;28;20170;-48
2022/08/01 07:58:05;;;;;;;7.82;4.50;;;;;;;;;;4985624;28;20565;-49
2022/08/01 08:00:30;;;;;;;11.95;3.20;;;;;;;;;;4982599;28;20049;-50
2022/08/01 08:02:58;;;;;;;6.65;5.03;;;;;;;;;;4986056;28;20061;-48
2022/08/01 08:05:24;;;;;;;3.67;2.42;;;;;;;;;;4984722;28;20074;-49
2022/08/01 08:07:49;;;;;;;16.63;4.68;;;;;;;;;;4985942;28;20104;-47
2022/08/01 08:10:14;;;;;;;4.97;2.17;;;;;;;;;;4984541;28;20074;-50
2022/08/01 08:12:39;;;;;;;4.60;1.52;;;;;;;;;;4986026;28;20138;-48
2022/08/01 08:15:05;;;;;;;2.83;2.05;;;;;;;;;;4985441;28;20046;-50
2022/08/01 08:17:31;;;;;;;4.82;2.03;;;;;;;;;;4984893;28;20053;-52
2022/08/01 08:19:57;;;;;;;2.97;2.00;;;;;;;;;;4985100;28;20046;-53
2022/08/01 08:22:22;;;;;;;3.70;2.30;;;;;;;;;;4985712;28;20057;-53
2022/08/01 08:24:47;;;;;;;1.52;1.00;;;;;;;;;;4985960;28;20041;-52
2022/08/01 08:27:13;;;;;;;12.13;2.28;;;;;;;;;;4985270;28;20053;-48
2022/08/01 08:29:38;;;;;;;4.68;2.78;;;;;;;;;;4985610;28;20097;-50
2022/08/01 08:32:04;;;;;;;6.72;2.30;;;;;;;;;;4985035;28;20038;-44
2022/08/01 08:34:29;;;;;;;3.65;2.13;;;;;;;;;;4985205;28;20038;-50
2022/08/01 08:36:56;;;;;;;2.78;1.45;;;;;;;;;;4985257;28;20089;-45
2022/08/01 08:39:21;;;;;;;4.43;1.48;;;;;;;;;;4984188;28;20042;-48
2022/08/01 08:41:47;;;;;;;2.65;1.80;;;;;;;;;;4985091;28;20065;-45
2022/08/01 08:44:12;;;;;;;2.65;1.23;;;;;;;;;;4985164;28;20076;-44
2022/08/01 08:46:42;;;;;;;9.30;1.27;;;;;;;;;;4984600;28;20542;-47
2022/08/01 08:49:08;;;;;;;1.63;1.25;;;;;;;;;;4983608;28;20050;-48
2022/08/01 08:51:37;;;;;;;6.13;2.75;;;;;;;;;;4985738;28;20160;-45
2022/08/01 08:54:03;;;;;;;7.65;4.47;;;;;;;;;;4985478;28;21003;-48
2022/08/01 08:56:33;;;;;;;2.63;2.08;;;;;;;;;;4985556;28;20046;-49
2022/08/01 08:58:59;;;;;;;2.17;1.50;;;;;;;;;;4985296;28;20062;-49
2022/08/01 09:01:25;;;;;;;2.35;1.23;;;;;;;;;;4984007;28;20077;-49
2022/08/01 09:03:50;;;;;;;3.42;2.10;;;;;;;;;;4985234;28;20121;-50
2022/08/01 09:06:15;;;;;;;2.50;1.77;;;;;;;;;;4984573;28;20408;-48
2022/08/01 09:08:41;;;;;;;5.90;1.65;;;;;;;;;;4984381;28;20603;-48
2022/08/01 09:11:06;;;;;;;34.92;4.65;;;;;;;;;;4983928;28;20054;-48
2022/08/01 09:13:32;;;;;;;2.35;1.75;;;;;;;;;;4984688;28;20043;-50
2022/08/01 09:15:58;;;;;;;5.60;1.45;;;;;;;;;;4984742;28;20046;-49
2022/08/01 09:18:30;;;;;;;2.63;1.33;;;;;;;;;;4985906;28;20053;-49
2022/08/01 09:21:16;;;;;;;1.48;0.93;;;;;;;;;;4988311;28;20054;-52
2022/08/01 09:23:44;;;;;;;1.83;1.48;;;;;;;;;;4986188;28;20049;-47
2022/08/01 09:26:09;;;;;;;2.33;1.35;;;;;;;;;;4988347;28;20049;-50
2022/08/01 09:28:35;;;;;;;4.22;2.20;;;;;;;;;;4985693;28;20050;-52
2022/08/01 09:31:27;;;;;;;5.60;1.40;;;;;;;;;;4986411;28;20536;-50
2022/08/01 09:33:53;;;;;;;1.42;0.73;;;;;;;;;;4987456;28;20057;-54
2022/08/01 09:36:24;;;;;;;2.95;1.48;;;;;;;;;;4989296;28;20042;-52
2022/08/01 09:38:50;;;;;;;1.80;1.08;;;;;;;;;;4988586;28;20121;-53
2022/08/01 09:41:15;;;;;;;3.95;1.15;;;;;;;;;;4988328;28;20031;-49
2022/08/01 09:43:47;;;;;;;1.00;0.68;;;;;;;;;;4988611;28;20046;-51
2022/08/01 09:46:12;;;;;;;1.30;0.80;;;;;;;;;;4988429;28;20058;-51
2022/08/01 09:48:39;;;;;;;2.15;1.20;;;;;;;;;;4989418;28;20095;-51
2022/08/01 09:51:05;;;;;;;3.08;1.83;;;;;;;;;;4987825;28;20057;-52
2022/08/01 09:53:40;;;;;;;2.13;1.13;;;;;;;;;;4987021;28;20065;-50
2022/08/01 09:56:10;;;;;;;1.02;0.75;;;;;;;;;;4969583;28;20038;-52
2022/08/01 09:58:51;;;;;;;5.55;1.67;;;;;;;;;;4987541;28;20046;-52
2022/08/01 10:01:20;;;;;;;3.78;3.15;;;;;;;;;;4989783;28;20053;-53
2022/08/01 10:03:45;;;;;;;3.20;1.10;;;;;;;;;;4988736;28;20042;-52
2022/08/01 10:06:20;;;;;;;11.82;1.65;;;;;;;;;;4988370;28;20108;-55
2022/08/01 10:08:47;;;;;;;4.45;1.75;;;;;;;;;;4985944;28;20050;-52
2022/08/01 10:11:12;;;;;;;1.95;1.25;;;;;;;;;;4987599;28;20042;-51
2022/08/01 10:13:38;;;;;;;5.00;1.70;;;;;;;;;;4987183;28;20056;-57
2022/08/01 10:16:04;;;;;;;3.08;0.77;;;;;;;;;;4985391;28;20074;-54
2022/08/01 10:18:31;;;;;;;3.67;1.98;;;;;;;;;;4985614;28;20077;-52
2022/08/01 10:20:57;;;;;;;1.33;1.08;;;;;;;;;;4985630;28;20520;-55
2022/08/01 10:23:24;;;;;;;5.57;4.68;;;;;;;;;;4985804;28;20061;-50
2022/08/01 10:25:51;;;;;;;2.70;1.95;;;;;;;;;;4986173;28;20042;-56
2022/08/01 10:28:17;;;;;;;4.32;1.73;;;;;;;;;;4986481;28;20524;-54
2022/08/01 10:30:43;;;;;;;4.07;1.55;;;;;;;;;;4985330;28;20045;-50
2022/08/01 10:33:10;;;;;;;2.45;1.55;;;;;;;;;;4987671;28;20081;-54
2022/08/01 10:35:35;;;;;;;1.88;1.45;;;;;;;;;;4986314;28;20101;-51
2022/08/01 10:38:00;;;;;;;1.67;1.00;;;;;;;;;;4985563;28;20050;-52
2022/08/01 10:40:27;;;;;;;2.70;1.73;;;;;;;;;;4985095;28;20096;-53
2022/08/01 10:42:53;;;;;;;4.35;1.38;;;;;;;;;;4985641;28;20509;-47
2022/08/01 10:45:18;;;;;;;6.05;3.90;;;;;;;;;;4967339;28;20131;-49
2022/08/01 10:48:06;;;;;;;3.47;2.00;;;;;;;;;;4984897;28;20576;-51
2022/08/01 10:50:34;;;;;;;6.88;1.75;;;;;;;;;;4955974;28;20078;-55
2022/08/01 10:53:05;;;;;;;3.97;1.95;;;;;;;;;;4985029;28;20150;-52
2022/08/01 10:55:44;;;;;;;1.52;0.93;;;;;;;;;;4984194;28;20112;-50
2022/08/01 10:58:09;;;;;;;1.92;1.42;;;;;;;;;;4985028;28;20061;-51
2022/08/01 11:00:35;;;;;;;2.40;1.08;;;;;;;;;;4985044;28;20050;-49
2022/08/01 11:03:03;;;;;;;2.08;1.25;;;;;;;;;;4985947;28;20058;-53
2022/08/01 11:05:31;;;;;;;13.80;1.70;;;;;;;;;;4987156;28;20133;-54
2022/08/01 11:07:58;;;;;;;2.85;1.77;;;;;;;;;;4987065;28;20153;-54
2022/08/01 11:10:34;;;;;;;1.17;0.93;;;;;;;;;;4986723;28;20104;-50
2022/08/01 11:13:03;;;;;;;2.88;1.70;;;;;;;;;;4986484;28;20077;-51
2022/08/01 11:15:28;;;;;;;2.83;1.30;;;;;;;;;;4985475;28;20070;-48
2022/08/01 11:17:55;;;;;;;1.48;0.82;;;;;;;;;;4986984;28;20760;-51
2022/08/01 11:20:24;;;;;;;2.05;1.45;;;;;;;;;;4985665;28;20133;-55
2022/08/01 11:22:58;;;;;;;2.45;1.27;;;;;;;;;;4987319;28;20054;-52
2022/08/01 11:25:24;;;;;;;3.33;1.90;;;;;;;;;;4987164;28;20047;-52
2022/08/01 11:28:10;;;;;;;1.90;1.33;;;;;;;;;;4987071;28;20129;-52
2022/08/01 11:30:35;;;;;;;0.85;0.70;;;;;;;;;;4985869;28;20050;-53
2022/08/01 11:33:00;;;;;;;1.27;0.80;;;;;;;;;;4984274;28;20058;-50
2022/08/01 11:35:29;;;;;;;5.45;1.85;;;;;;;;;;4987500;28;20065;-53
2022/08/01 11:37:55;;;;;;;5.28;1.35;;;;;;;;;;4983659;28;20501;-51
2022/08/01 11:40:25;;;;;;;6.85;1.23;;;;;;;;;;4982328;28;20525;-55
2022/08/01 11:43:11;;;;;;;5.03;1.05;;;;;;;;;;4984059;28;20062;-55
2022/08/01 11:45:52;;;;;;;1.42;1.20;;;;;;;;;;4984885;28;20053;-55
2022/08/01 11:48:27;;;;;;;3.20;0.95;;;;;;;;;;4983622;28;20034;-51
2022/08/01 11:50:54;;;;;;;2.85;0.82;;;;;;;;;;4983468;28;20487;-54
2022/08/01 11:53:20;;;;;;;1.08;0.47;;;;;;;;;;4984452;28;20046;-53
2022/08/01 11:55:46;;;;;;;3.83;0.70;;;;;;;;;;4984050;28;20128;-49
2022/08/01 11:58:12;;;;;;;1.92;0.93;;;;;;;;;;4983688;28;20059;-48
2022/08/01 12:00:37;;;;;;;2.80;1.40;;;;;;;;;;4984386;28;20057;-53
2022/08/01 12:03:04;;;;;;;1.13;0.95;;;;;;;;;;4984499;28;20068;-51
2022/08/01 12:05:30;;;;;;;3.40;2.10;;;;;;;;;;4983942;28;20058;-51
2022/08/01 12:07:56;;;;;;;1.20;0.80;;;;;;;;;;4983980;28;20061;-51
2022/08/01 12:10:37;;;;;;;1.75;1.15;;;;;;;;;;4984095;28;20054;-50
2022/08/01 12:13:03;;;;;;;2.53;1.67;;;;;;;;;;4983830;28;20058;-47
2022/08/01 12:15:30;;;;;;;1.13;0.82;;;;;;;;;;4982813;28;20053;-46
2022/08/01 12:17:57;;;;;;;4.70;4.28;;;;;;;;;;4983841;28;20061;-50
2022/08/01 12:20:23;;;;;;;1.65;1.13;;;;;;;;;;4984399;28;20046;-46
2022/08/01 12:22:53;;;;;;;3.10;1.75;;;;;;;;;;4984223;28;20050;-53
2022/08/01 12:25:19;;;;;;;2.85;1.20;;;;;;;;;;4982606;28;20058;-48
2022/08/01 12:27:45;;;;;;;1.63;0.77;;;;;;;;;;4983206;28;20159;-48
2022/08/01 12:30:15;;;;;;;3.70;1.60;;;;;;;;;;4983866;28;20054;-50
2022/08/01 12:32:41;;;;;;;1.40;0.98;;;;;;;;;;4984052;28;20046;-50
2022/08/01 12:35:08;;;;;;;1.58;1.30;;;;;;;;;;4983159;28;20144;-50
2022/08/01 12:37:40;;;;;;;0.90;0.60;;;;;;;;;;4982424;28;20065;-48
2022/08/01 12:40:10;;;;;;;3.58;1.17;;;;;;;;;;4982318;28;20085;-51
2022/08/01 12:42:36;;;;;;;1.33;0.77;;;;;;;;;;4984046;28;20046;-50
2022/08/01 12:45:02;;;;;;;4.38;1.67;;;;;;;;;;4984908;28;20054;-48
2022/08/01 12:47:27;;;;;;;3.50;1.45;;;;;;;;;;4984694;28;20049;-50
2022/08/01 12:49:53;;;;;;;0.90;0.73;;;;;;;;;;4984757;28;20057;-49
2022/08/01 12:52:22;;;;;;;2.33;0.85;;;;;;;;;;4985672;28;20049;-51
2022/08/01 12:55:00;;;;;;;2.20;1.13;;;;;;;;;;4986242;28;20050;-51
2022/08/01 12:57:25;;;;;;;2.50;1.23;;;;;;;;;;4986775;28;20046;-48
2022/08/01 13:00:04;;;;;;;2.88;1.35;;;;;;;;;;4985939;28;20057;-49
2022/08/01 13:02:33;;;;;;;1.23;0.75;;;;;;;;;;4985284;28;20225;-50
2022/08/01 13:04:58;;;;;;;1.30;1.00;;;;;;;;;;4989915;28;20046;-53
2022/08/01 13:07:34;;;;;;;2.17;1.00;;;;;;;;;;4987914;28;20448;-48
2022/08/01 13:09:59;;;;;;;1.35;0.93;;;;;;;;;;4986136;28;20106;-49
2022/08/01 13:12:24;;;;;;;1.42;0.95;;;;;;;;;;4986243;28;20052;-48
2022/08/01 13:14:50;;;;;;;1.10;0.73;;;;;;;;;;4987307;28;21821;-47
2022/08/01 13:17:29;;;;;;;2.38;1.13;;;;;;;;;;4984731;28;20038;-52
2022/08/01 13:19:54;;;;;;;3.00;1.30;;;;;;;;;;4987325;28;20050;-48
2022/08/01 13:22:20;;;;;;;1.05;0.93;;;;;;;;;;4985487;28;20066;-48
2022/08/01 13:24:45;;;;;;;0.98;0.90;;;;;;;;;;4986546;28;20049;-48
2022/08/01 13:27:19;;;;;;;1.15;0.95;;;;;;;;;;4986857;28;20034;-50
2022/08/01 13:29:47;;;;;;;2.70;1.02;;;;;;;;;;4987031;28;20030;-49
2022/08/01 13:32:12;;;;;;;1.65;0.98;;;;;;;;;;4984825;28;20050;-50
2022/08/01 13:34:38;;;;;;;2.72;1.45;;;;;;;;;;4984956;28;20049;-50
2022/08/01 13:37:03;;;;;;;1.95;1.00;;;;;;;;;;4987721;28;20056;-53
2022/08/01 13:39:41;;;;;;;2.28;1.40;;;;;;;;;;4984290;28;20049;-48
2022/08/01 13:42:07;;;;;;;3.85;1.25;;;;;;;;;;4983805;28;20343;-49
2022/08/01 13:44:32;;;;;;;1.85;0.95;;;;;;;;;;4984664;28;20564;-47
2022/08/01 13:46:57;;;;;;;2.75;0.98;;;;;;;;;;4984586;28;20421;-51
2022/08/01 13:49:23;;;;;;;1.90;1.40;;;;;;;;;;4983350;28;20484;-51
2022/08/01 13:51:50;;;;;;;2.22;1.05;;;;;;;;;;4983852;28;20097;-49
2022/08/01 13:54:15;;;;;;;8.98;5.63;;;;;;;;;;4982415;28;20054;-47
2022/08/01 13:56:41;;;;;;;5.97;2.17;;;;;;;;;;4985722;28;20115;-49
2022/08/01 13:59:06;;;;;;;4.03;1.90;;;;;;;;;;4985352;28;20034;-48
2022/08/01 14:01:32;;;;;;;4.10;1.10;;;;;;;;;;4985472;28;20054;-49
2022/08/01 14:03:57;;;;;;;1.25;0.90;;;;;;;;;;4987731;28;20149;-52
2022/08/01 14:06:22;;;;;;;4.82;1.13;;;;;;;;;;4988383;28;20081;-46
2022/08/01 14:08:49;;;;;;;3.38;1.50;;;;;;;;;;4988845;28;20058;-46
2022/08/01 14:11:14;;;;;;;1.98;1.08;;;;;;;;;;4988601;28;20145;-47
2022/08/01 14:13:40;;;;;;;2.67;1.67;;;;;;;;;;4988855;28;20141;-49
2022/08/01 14:16:05;;;;;;;0.95;0.85;;;;;;;;;;4988835;28;20076;-48
2022/08/01 14:18:31;;;;;;;3.10;1.85;;;;;;;;;;4986312;28;20073;-51
2022/08/01 14:20:56;;;;;;;8.30;1.55;;;;;;;;;;4989670;28;20097;-45
2022/08/01 14:23:22;;;;;;;2.20;0.82;;;;;;;;;;4987345;28;20058;-52
2022/08/01 14:25:47;;;;;;;9.32;2.03;;;;;;;;;;4988465;28;20086;-47
2022/08/01 14:28:12;;;;;;;3.38;1.77;;;;;;;;;;4988370;28;20042;-50
2022/08/01 14:30:38;;;;;;;1.88;1.25;;;;;;;;;;4988314;28;20050;-51
2022/08/01 14:33:03;;;;;;;3.03;2.75;;;;;;;;;;4988435;28;20050;-49
2022/08/01 14:35:28;;;;;;;4.35;3.15;;;;;;;;;;4988479;28;20096;-51
2022/08/01 14:37:54;;;;;;;2.97;2.60;;;;;;;;;;4988064;28;20058;-47
2022/08/01 14:40:19;;;;;;;3.45;2.05;;;;;;;;;;4989044;28;20121;-50
2022/08/01 14:42:44;;;;;;;1.48;1.10;;;;;;;;;;4988785;28;20502;-47